Paranavai, Brazil
Current Conditions -  °F | °C
As of 4:15 PM on Thursday 29 Jan 2015 (Local Time) from SBMG Reporting Station
Light Rain Light Rain  
Wind Chill: 68°   Ceiling: 10000
Heat Index: 68°   Visibility: 6mi
Dew Point: 68°   Wind: 2mph
Humidity: 100%   Direction: 270°W
Pressure: 29.94"   Gusts: NA
Location:  23.07°S, 52.47°W
Report Text: SBMG 291815Z 27002KT 9999 1000S -RA BCFG SCT005 FEW030TCU SCT040 BKN100 20/20 Q1014 RETS
Loading
Personal Weather Stations






























Interactive Weather Map New forecast layout! Learn more

10-Day Weather Forecast

Advertisements
Track Severe Weather on mobile